Time,TemperatureF,DewpointF,PressureIn,WindDirection,WindDirectionDegrees,WindSpeedMPH,WindSpeedGustMPH,Humidity,HourlyPrecipIn,Conditions,Clouds,dailyrainin,SolarRadiationWatts/m^2,SoftwareType,DateUTC
2013-09-24 00:13:00,56.0,50.0,-100.00,East,101,5.0,9.0,81,0.00,,,0.00,0.000000,,2013-09-24 05:13:00,
2013-09-24 00:23:00,56.0,50.0,-100.00,East,101,5.0,9.0,81,0.00,,,0.00,0.000000,,2013-09-24 05:23:00,
2013-09-24 00:34:00,56.0,50.0,-100.00,East,101,5.0,9.0,81,0.00,,,0.00,0.000000,,2013-09-24 05:34:00,
2013-09-24 00:43:00,56.0,50.0,-100.00,East,101,5.0,9.0,81,0.00,,,0.00,0.000000,,2013-09-24 05:43:00,
2013-09-24 01:12:00,55.0,51.0,-100.00,East,99,6.0,9.0,86,0.00,,,0.00,0.000000,,2013-09-24 06:12:00,
2013-09-24 01:22:00,55.0,51.0,-100.00,East,99,6.0,9.0,86,0.00,,,0.00,0.000000,,2013-09-24 06:22:00,
2013-09-24 01:32:00,55.0,51.0,-100.00,East,99,6.0,9.0,86,0.00,,,0.00,0.000000,,2013-09-24 06:32:00,
2013-09-24 01:42:00,55.0,51.0,-100.00,East,99,6.0,9.0,86,0.00,,,0.00,0.000000,,2013-09-24 06:42:00,
2013-09-24 02:22:00,55.0,51.0,-100.00,ESE,106,9.0,13.0,85,0.00,,,0.00,0.000000,,2013-09-24 07:22:00,
2013-09-24 02:32:00,55.0,51.0,-100.00,ESE,106,9.0,13.0,85,0.00,,,0.00,0.000000,,2013-09-24 07:32:00,
2013-09-24 02:43:00,55.0,51.0,-100.00,ESE,106,9.0,13.0,85,0.00,,,0.00,0.000000,,2013-09-24 07:43:00,
2013-09-24 03:11:00,56.0,50.0,-100.00,ESE,119,8.0,13.0,80,0.00,,,0.00,0.000000,,2013-09-24 08:11:00,
2013-09-24 03:22:00,56.0,50.0,-100.00,ESE,119,8.0,13.0,80,0.00,,,0.00,0.000000,,2013-09-24 08:22:00,
2013-09-24 03:32:00,56.0,50.0,-100.00,ESE,119,8.0,13.0,80,0.00,,,0.00,0.000000,,2013-09-24 08:32:00,
2013-09-24 03:42:00,56.0,50.0,-100.00,ESE,119,8.0,13.0,80,0.00,,,0.00,0.000000,,2013-09-24 08:42:00,
2013-09-24 04:12:00,55.0,50.0,-100.00,ESE,116,10.0,13.0,82,0.00,,,0.00,0.000000,,2013-09-24 09:12:00,
2013-09-24 04:21:00,55.0,50.0,-100.00,ESE,116,10.0,13.0,82,0.00,,,0.00,0.000000,,2013-09-24 09:21:00,
2013-09-24 04:33:00,55.0,50.0,-100.00,ESE,116,10.0,13.0,82,0.00,,,0.00,0.000000,,2013-09-24 09:33:00,
2013-09-24 04:43:00,55.0,50.0,-100.00,ESE,116,10.0,13.0,82,0.00,,,0.00,0.000000,,2013-09-24 09:43:00,
2013-09-24 05:13:00,52.0,49.0,-100.00,ESE,103,7.0,11.0,88,0.00,,,0.00,0.000000,,2013-09-24 10:13:00,
2013-09-24 05:23:00,52.0,49.0,-100.00,ESE,103,7.0,11.0,88,0.00,,,0.00,0.000000,,2013-09-24 10:23:00,
2013-09-24 05:33:00,52.0,49.0,-100.00,ESE,103,7.0,11.0,88,0.00,,,0.00,0.000000,,2013-09-24 10:33:00,
2013-09-24 05:42:00,52.0,49.0,-100.00,ESE,103,7.0,11.0,88,0.00,,,0.00,0.000000,,2013-09-24 10:42:00,
2013-09-24 06:11:00,53.0,49.0,-100.00,ESE,107,11.0,15.0,85,0.00,,,0.00,0.000000,,2013-09-24 11:11:00,
2013-09-24 06:22:00,53.0,49.0,-100.00,ESE,107,11.0,15.0,85,0.00,,,0.00,0.000000,,2013-09-24 11:22:00,
2013-09-24 06:33:00,53.0,49.0,-100.00,ESE,107,11.0,15.0,85,0.00,,,0.00,0.000000,,2013-09-24 11:33:00,
2013-09-24 06:42:00,53.0,49.0,-100.00,ESE,107,11.0,15.0,85,0.00,,,0.00,0.000000,,2013-09-24 11:42:00,
2013-09-24 07:12:00,52.0,49.0,-100.00,ESE,105,9.0,15.0,88,0.00,,,-99.99,0.000000,,2013-09-24 12:12:00,
2013-09-24 07:22:00,52.0,49.0,-100.00,ESE,105,9.0,15.0,88,0.00,,,-99.99,0.000000,,2013-09-24 12:22:00,
2013-09-24 07:32:00,52.0,49.0,-100.00,ESE,105,9.0,15.0,88,0.00,,,-99.99,0.000000,,2013-09-24 12:32:00,
2013-09-24 07:42:00,52.0,49.0,-100.00,ESE,105,9.0,15.0,88,0.00,,,-99.99,0.000000,,2013-09-24 12:42:00,
2013-09-24 08:11:00,54.0,50.0,-100.00,East,93,8.0,12.0,85,0.00,,,0.00,24.000000,,2013-09-24 13:11:00,
2013-09-24 08:22:00,54.0,50.0,-100.00,East,93,8.0,12.0,85,0.00,,,0.00,24.000000,,2013-09-24 13:22:00,
2013-09-24 08:32:00,54.0,50.0,-100.00,East,93,8.0,12.0,85,0.00,,,0.00,24.000000,,2013-09-24 13:32:00,
2013-09-24 08:42:00,54.0,50.0,-100.00,East,93,8.0,12.0,85,0.00,,,0.00,24.000000,,2013-09-24 13:42:00,
2013-09-24 09:12:00,59.0,51.0,-100.00,ESE,106,10.0,17.0,74,0.00,,,0.00,243.000000,,2013-09-24 14:12:00,
2013-09-24 09:21:00,59.0,51.0,-100.00,ESE,106,10.0,17.0,74,0.00,,,0.00,243.000000,,2013-09-24 14:21:00,
2013-09-24 09:32:00,59.0,51.0,-100.00,ESE,106,10.0,17.0,74,0.00,,,0.00,243.000000,,2013-09-24 14:32:00,
2013-09-24 09:42:00,59.0,51.0,-100.00,ESE,106,10.0,17.0,74,0.00,,,0.00,243.000000,,2013-09-24 14:42:00,
2013-09-24 10:11:00,61.0,52.0,-100.00,ESE,109,9.0,17.0,72,0.00,,,0.00,301.000000,,2013-09-24 15:11:00,
2013-09-24 10:22:00,61.0,52.0,-100.00,ESE,109,9.0,17.0,72,0.00,,,0.00,301.000000,,2013-09-24 15:22:00,
2013-09-24 10:33:00,61.0,52.0,-100.00,ESE,109,9.0,17.0,72,0.00,,,0.00,301.000000,,2013-09-24 15:33:00,
2013-09-24 10:43:00,61.0,52.0,-100.00,ESE,109,9.0,17.0,72,0.00,,,0.00,301.000000,,2013-09-24 15:43:00,
2013-09-24 11:13:00,67.0,54.0,-100.00,East,97,10.0,17.0,63,0.00,,,0.00,416.000000,,2013-09-24 16:13:00,
2013-09-24 11:23:00,67.0,54.0,-100.00,East,97,10.0,17.0,63,0.00,,,0.00,416.000000,,2013-09-24 16:23:00,
2013-09-24 11:33:00,67.0,54.0,-100.00,East,97,10.0,17.0,63,0.00,,,0.00,416.000000,,2013-09-24 16:33:00,
2013-09-24 11:43:00,67.0,54.0,-100.00,East,97,10.0,17.0,63,0.00,,,0.00,416.000000,,2013-09-24 16:43:00,
2013-09-24 12:13:00,69.0,55.0,-100.00,East,94,9.0,15.0,62,0.00,,,0.00,518.000000,,2013-09-24 17:13:00,
2013-09-24 12:23:00,69.0,55.0,-100.00,East,94,9.0,15.0,62,0.00,,,0.00,518.000000,,2013-09-24 17:23:00,
2013-09-24 12:33:00,69.0,55.0,-100.00,East,94,9.0,15.0,62,0.00,,,0.00,518.000000,,2013-09-24 17:33:00,
2013-09-24 12:43:00,69.0,55.0,-100.00,East,94,9.0,15.0,62,0.00,,,0.00,518.000000,,2013-09-24 17:43:00,
2013-09-24 13:12:00,72.0,56.0,-100.00,East,94,11.0,17.0,58,0.00,,,0.00,466.000000,,2013-09-24 18:12:00,
2013-09-24 13:22:00,72.0,56.0,-100.00,East,94,11.0,17.0,58,0.00,,,0.00,466.000000,,2013-09-24 18:22:00,
2013-09-24 13:32:00,72.0,56.0,-100.00,East,94,11.0,17.0,58,0.00,,,0.00,466.000000,,2013-09-24 18:32:00,
2013-09-24 13:42:00,72.0,56.0,-100.00,East,94,11.0,17.0,58,0.00,,,0.00,466.000000,,2013-09-24 18:42:00,
2013-09-24 14:11:00,74.0,56.0,-100.00,ESE,104,14.0,22.0,53,0.00,,,0.00,762.000000,,2013-09-24 19:11:00,
2013-09-24 14:22:00,74.0,56.0,-100.00,ESE,104,14.0,22.0,53,0.00,,,0.00,762.000000,,2013-09-24 19:22:00,
2013-09-24 14:32:00,74.0,56.0,-100.00,ESE,104,14.0,22.0,53,0.00,,,0.00,762.000000,,2013-09-24 19:32:00,
2013-09-24 14:42:00,74.0,56.0,-100.00,ESE,104,14.0,22.0,53,0.00,,,0.00,762.000000,,2013-09-24 19:42:00,
2013-09-24 15:11:00,75.0,55.0,-100.00,ESE,108,13.0,21.0,50,0.00,,,0.00,405.000000,,2013-09-24 20:11:00,
2013-09-24 15:22:00,75.0,55.0,-100.00,ESE,108,13.0,21.0,50,0.00,,,0.00,405.000000,,2013-09-24 20:22:00,
2013-09-24 15:32:00,75.0,55.0,-100.00,ESE,108,13.0,21.0,50,0.00,,,0.00,405.000000,,2013-09-24 20:32:00,
2013-09-24 15:42:00,75.0,55.0,-100.00,ESE,108,13.0,21.0,50,0.00,,,0.00,405.000000,,2013-09-24 20:42:00,
2013-09-24 16:12:00,75.0,56.0,-100.00,East,100,8.0,18.0,52,0.00,,,0.00,220.000000,,2013-09-24 21:12:00,
2013-09-24 16:22:00,75.0,56.0,-100.00,East,100,8.0,18.0,52,0.00,,,0.00,220.000000,,2013-09-24 21:22:00,
2013-09-24 16:33:00,75.0,56.0,-100.00,East,100,8.0,18.0,52,0.00,,,0.00,220.000000,,2013-09-24 21:33:00,
2013-09-24 16:43:00,75.0,56.0,-100.00,East,100,8.0,18.0,52,0.00,,,0.00,220.000000,,2013-09-24 21:43:00,
2013-09-24 17:13:00,74.0,55.0,-100.00,East,88,11.0,19.0,51,0.00,,,0.00,265.000000,,2013-09-24 22:13:00,
2013-09-24 17:23:00,74.0,55.0,-100.00,East,88,11.0,19.0,51,0.00,,,0.00,265.000000,,2013-09-24 22:23:00,
2013-09-24 17:34:00,74.0,55.0,-100.00,East,88,11.0,19.0,51,0.00,,,0.00,265.000000,,2013-09-24 22:34:00,
2013-09-24 17:43:00,74.0,55.0,-100.00,East,88,11.0,19.0,51,0.00,,,0.00,265.000000,,2013-09-24 22:43:00,
2013-09-24 18:13:00,74.0,55.0,-100.00,East,86,8.0,14.0,51,0.00,,,0.00,160.000000,,2013-09-24 23:13:00,
2013-09-24 18:22:00,74.0,55.0,-100.00,East,86,8.0,14.0,51,0.00,,,0.00,160.000000,,2013-09-24 23:22:00,
2013-09-24 18:33:00,74.0,55.0,-100.00,East,86,8.0,14.0,51,0.00,,,0.00,160.000000,,2013-09-24 23:33:00,
2013-09-24 18:43:00,74.0,55.0,-100.00,East,86,8.0,14.0,51,0.00,,,0.00,160.000000,,2013-09-24 23:43:00,
2013-09-24 19:12:00,68.0,55.0,-100.00,ENE,67,7.0,14.0,63,0.00,,,0.00,73.000000,,2013-09-25 00:12:00,
2013-09-24 19:22:00,68.0,55.0,-100.00,ENE,67,7.0,14.0,63,0.00,,,0.00,73.000000,,2013-09-25 00:22:00,
2013-09-24 19:33:00,68.0,55.0,-100.00,ENE,67,7.0,14.0,63,0.00,,,0.00,73.000000,,2013-09-25 00:33:00,
2013-09-24 19:42:00,68.0,55.0,-100.00,ENE,67,7.0,14.0,63,0.00,,,0.00,73.000000,,2013-09-25 00:42:00,
2013-09-24 20:12:00,65.0,56.0,-100.00,ENE,68,5.0,9.0,72,0.00,,,0.00,3.000000,,2013-09-25 01:12:00,
2013-09-24 20:21:00,65.0,56.0,-100.00,ENE,68,5.0,9.0,72,0.00,,,0.00,3.000000,,2013-09-25 01:21:00,
2013-09-24 20:32:00,65.0,56.0,-100.00,ENE,68,5.0,9.0,72,0.00,,,0.00,3.000000,,2013-09-25 01:32:00,
2013-09-24 20:42:00,65.0,56.0,-100.00,ENE,68,5.0,9.0,72,0.00,,,0.00,3.000000,,2013-09-25 01:42:00,
2013-09-24 21:12:00,64.0,55.0,-100.00,NE,50,7.0,10.0,73,0.00,,,0.00,0.000000,,2013-09-25 02:12:00,
2013-09-24 21:22:00,64.0,55.0,-100.00,NE,50,7.0,10.0,73,0.00,,,0.00,0.000000,,2013-09-25 02:22:00,
2013-09-24 21:32:00,64.0,55.0,-100.00,NE,50,7.0,10.0,73,0.00,,,0.00,0.000000,,2013-09-25 02:32:00,
2013-09-24 21:42:00,64.0,55.0,-100.00,NE,50,7.0,10.0,73,0.00,,,0.00,0.000000,,2013-09-25 02:42:00,
2013-09-24 22:11:00,64.0,55.0,-100.00,NE,55,5.0,9.0,73,0.00,,,0.00,0.000000,,2013-09-25 03:11:00,
2013-09-24 22:23:00,64.0,55.0,-100.00,NE,55,5.0,9.0,73,0.00,,,0.00,0.000000,,2013-09-25 03:23:00,
2013-09-24 22:34:00,64.0,55.0,-100.00,NE,55,5.0,9.0,73,0.00,,,0.00,0.000000,,2013-09-25 03:34:00,
2013-09-24 22:44:00,64.0,55.0,-100.00,NE,55,5.0,9.0,73,0.00,,,0.00,0.000000,,2013-09-25 03:44:00,
2013-09-24 23:14:00,63.0,54.0,-100.00,East,82,5.0,9.0,73,0.00,,,0.00,0.000000,,2013-09-25 04:14:00,
2013-09-24 23:24:00,63.0,54.0,-100.00,East,82,5.0,9.0,73,0.00,,,0.00,0.000000,,2013-09-25 04:24:00,
2013-09-24 23:34:00,63.0,54.0,-100.00,East,82,5.0,9.0,73,0.00,,,0.00,0.000000,,2013-09-25 04:34:00,
2013-09-24 23:43:00,63.0,54.0,-100.00,East,82,5.0,9.0,73,0.00,,,0.00,0.000000,,2013-09-25 04:43:00,